createdAt,value
2024-01-16T00:01:57.398Z,8.30
2024-01-16T00:04:23.960Z,7.83
2024-01-16T00:06:51.052Z,10.70
2024-01-16T00:09:17.898Z,6.73
2024-01-16T00:11:45.240Z,7.13
2024-01-16T00:14:11.790Z,8.03
2024-01-16T00:16:45.811Z,6.00
2024-01-16T00:19:14.216Z,7.50
2024-01-16T00:21:41.884Z,7.83
2024-01-16T00:24:09.164Z,6.83
2024-01-16T00:26:36.586Z,7.07
2024-01-16T00:29:03.512Z,7.17
2024-01-16T00:31:29.946Z,5.57
2024-01-16T00:33:56.485Z,8.97
2024-01-16T00:36:23.254Z,7.67
2024-01-16T00:38:51.476Z,5.93
2024-01-16T00:41:18.330Z,5.77
2024-01-16T00:43:45.400Z,5.60
2024-01-16T00:46:12.164Z,6.73
2024-01-16T00:48:42.311Z,6.80
2024-01-16T00:51:09.579Z,4.93
2024-01-16T00:53:44.626Z,7.00
2024-01-16T00:56:12.341Z,7.10
2024-01-16T00:58:39.161Z,7.27
2024-01-16T01:01:05.943Z,8.23
2024-01-16T01:03:32.684Z,5.97
2024-01-16T01:06:01.722Z,5.60
2024-01-16T01:08:28.361Z,5.87
2024-01-16T01:10:55.175Z,5.63
2024-01-16T01:13:21.679Z,6.33
2024-01-16T01:15:50.186Z,4.83
2024-01-16T01:18:16.922Z,7.50
2024-01-16T01:20:43.694Z,5.87
2024-01-16T01:23:11.090Z,6.07
2024-01-16T01:25:38.116Z,6.67
2024-01-16T01:28:04.849Z,8.30
2024-01-16T01:30:31.375Z,8.00
2024-01-16T01:32:58.239Z,7.07
2024-01-16T01:35:24.935Z,5.23
2024-01-16T01:37:52.206Z,6.37
2024-01-16T01:40:19.617Z,7.87
2024-01-16T01:42:46.392Z,5.93
2024-01-16T01:45:13.699Z,6.97
2024-01-16T01:47:43.962Z,6.10
2024-01-16T01:50:11.442Z,5.70
2024-01-16T01:52:41.005Z,6.33
2024-01-16T01:55:14.543Z,7.67
2024-01-16T01:57:44.707Z,8.57
2024-01-16T02:00:14.456Z,6.63
2024-01-16T02:02:42.697Z,6.30
2024-01-16T02:05:09.848Z,6.03
2024-01-16T02:07:37.716Z,8.37
2024-01-16T02:10:05.051Z,5.43
2024-01-16T02:12:31.497Z,7.40
2024-01-16T02:14:58.004Z,6.53
2024-01-16T02:17:25.610Z,7.90
2024-01-16T02:19:55.209Z,8.90
2024-01-16T02:22:28.213Z,6.03
2024-01-16T02:24:54.820Z,8.13
2024-01-16T02:27:21.804Z,8.20
2024-01-16T02:29:50.278Z,6.00
2024-01-16T02:32:17.624Z,8.87
2024-01-16T02:34:44.793Z,6.20
2024-01-16T02:37:12.305Z,7.33
2024-01-16T02:39:38.778Z,7.67
2024-01-16T02:42:05.519Z,8.53
2024-01-16T02:44:32.089Z,6.33
2024-01-16T02:46:58.885Z,7.77
2024-01-16T02:49:27.232Z,6.43
2024-01-16T02:51:54.015Z,7.03
2024-01-16T02:54:21.610Z,6.47
2024-01-16T02:56:48.200Z,7.20
2024-01-16T02:59:15.212Z,8.00
2024-01-16T03:01:41.948Z,7.33
2024-01-16T03:04:08.447Z,10.83
2024-01-16T03:06:35.895Z,8.30
2024-01-16T03:09:02.504Z,7.93
2024-01-16T03:11:32.627Z,6.93
2024-01-16T03:14:00.622Z,10.70
2024-01-16T03:16:27.049Z,7.60
2024-01-16T03:18:53.535Z,8.07
2024-01-16T03:21:20.273Z,7.83
2024-01-16T03:23:46.753Z,7.00
2024-01-16T03:26:16.488Z,8.53
2024-01-16T03:28:45.176Z,8.27
2024-01-16T03:31:14.792Z,9.87
2024-01-16T03:33:44.017Z,6.23
2024-01-16T03:36:11.686Z,8.73
2024-01-16T03:38:41.038Z,6.20
2024-01-16T03:41:08.605Z,8.63
2024-01-16T03:43:35.973Z,7.63
2024-01-16T03:46:06.059Z,7.50
2024-01-16T03:48:32.827Z,7.00
2024-01-16T03:51:00.587Z,5.17
2024-01-16T03:53:27.043Z,8.07
2024-01-16T03:55:53.541Z,9.77
2024-01-16T03:58:20.028Z,9.97
2024-01-16T04:00:47.427Z,8.10
2024-01-16T04:03:14.799Z,7.60
2024-01-16T04:05:41.833Z,7.00
2024-01-16T04:08:09.765Z,8.00
2024-01-16T04:10:37.028Z,6.10
2024-01-16T04:13:04.778Z,8.60
2024-01-16T04:15:33.357Z,8.97
2024-01-16T04:18:01.000Z,7.47
2024-01-16T04:20:27.577Z,7.77
2024-01-16T04:22:54.060Z,7.73
2024-01-16T04:25:20.697Z,8.93
2024-01-16T04:27:47.307Z,9.70
2024-01-16T04:30:14.380Z,8.50
2024-01-16T04:32:41.355Z,7.23
2024-01-16T04:35:09.271Z,9.20
2024-01-16T04:37:36.177Z,8.40
2024-01-16T04:40:03.033Z,7.87
2024-01-16T04:42:31.232Z,11.40
2024-01-16T04:44:57.801Z,8.17
2024-01-16T04:47:24.349Z,8.40
2024-01-16T04:49:50.859Z,8.10
2024-01-16T04:52:17.324Z,9.60
2024-01-16T04:54:49.188Z,9.53
2024-01-16T04:57:16.313Z,8.07
2024-01-16T04:59:43.109Z,9.53
2024-01-16T05:02:09.689Z,8.47
2024-01-16T05:04:39.564Z,8.40
2024-01-16T05:07:06.094Z,10.03
2024-01-16T05:09:32.523Z,9.97
2024-01-16T05:11:58.976Z,8.83
2024-01-16T05:14:26.576Z,9.63
2024-01-16T05:16:54.035Z,9.20
2024-01-16T05:19:21.120Z,7.90
2024-01-16T05:21:47.946Z,8.77
2024-01-16T05:24:14.415Z,8.30
2024-01-16T05:26:41.168Z,8.00
2024-01-16T05:29:10.030Z,8.63
2024-01-16T05:31:42.512Z,7.33
2024-01-16T05:34:10.566Z,7.53
2024-01-16T05:36:37.363Z,8.27
2024-01-16T05:39:04.898Z,8.60
2024-01-16T05:41:36.388Z,8.03
2024-01-16T05:44:06.407Z,8.03
2024-01-16T05:46:35.149Z,8.47
2024-01-16T05:49:01.822Z,9.47
2024-01-16T05:51:29.235Z,12.23
2024-01-16T05:53:56.148Z,9.23
2024-01-16T05:56:22.884Z,8.80
2024-01-16T05:58:49.356Z,9.03
2024-01-16T06:01:18.959Z,9.83
2024-01-16T06:03:48.062Z,8.97
2024-01-16T06:06:14.681Z,9.23
2024-01-16T06:08:41.342Z,9.27
2024-01-16T06:11:07.890Z,9.30
2024-01-16T06:13:34.398Z,8.20
2024-01-16T06:16:01.202Z,9.10
2024-01-16T06:18:29.447Z,8.80
2024-01-16T06:20:56.015Z,7.40
2024-01-16T06:23:22.692Z,9.70
2024-01-16T06:25:49.667Z,7.93
2024-01-16T06:28:16.149Z,6.93
2024-01-16T06:30:42.751Z,7.20
2024-01-16T06:33:09.579Z,7.70
2024-01-16T06:35:39.134Z,7.97
2024-01-16T06:38:07.518Z,6.63
2024-01-16T06:40:35.466Z,6.83
2024-01-16T06:43:03.828Z,6.23
2024-01-16T06:45:32.127Z,8.87
2024-01-16T06:48:01.879Z,6.03
2024-01-16T06:50:28.429Z,8.20
2024-01-16T06:52:55.051Z,8.00
2024-01-16T06:55:21.492Z,6.97
2024-01-16T06:57:48.764Z,8.70
2024-01-16T07:00:16.821Z,8.07
2024-01-16T07:02:46.304Z,7.43
2024-01-16T07:05:13.518Z,10.07
2024-01-16T07:07:41.303Z,7.40
2024-01-16T07:10:19.069Z,6.67
2024-01-16T07:12:46.345Z,6.97
2024-01-16T07:15:13.388Z,7.00
2024-01-16T07:17:41.481Z,8.63
2024-01-16T07:20:08.675Z,7.87
2024-01-16T07:22:38.354Z,6.20
2024-01-16T07:25:05.071Z,6.70
2024-01-16T07:27:33.029Z,7.20
2024-01-16T07:29:59.533Z,7.87
2024-01-16T07:32:27.170Z,7.57
2024-01-16T07:34:54.358Z,10.20
2024-01-16T07:37:21.361Z,8.57
2024-01-16T07:39:48.003Z,8.20
2024-01-16T07:42:18.568Z,7.87
2024-01-16T07:44:47.464Z,6.90
2024-01-16T07:47:14.320Z,8.63
2024-01-16T07:49:43.474Z,8.53
2024-01-16T07:52:13.682Z,9.60
2024-01-16T07:54:42.312Z,7.93
2024-01-16T07:57:08.718Z,8.03
2024-01-16T07:59:35.263Z,8.83
2024-01-16T08:02:01.735Z,10.83
2024-01-16T08:04:28.192Z,9.20
2024-01-16T08:06:57.202Z,8.40
2024-01-16T08:09:24.259Z,7.40
2024-01-16T08:11:51.003Z,7.10
2024-01-16T08:14:17.533Z,6.73
2024-01-16T08:16:44.274Z,8.53
2024-01-16T08:19:12.117Z,7.90
2024-01-16T08:21:38.900Z,6.77
2024-01-16T08:24:06.442Z,9.03
2024-01-16T08:26:33.019Z,8.20
2024-01-16T08:28:59.809Z,8.33
2024-01-16T08:31:26.606Z,5.97
2024-01-16T08:33:54.529Z,7.93
2024-01-16T08:36:21.333Z,9.37
2024-01-16T08:38:49.688Z,6.83
2024-01-16T08:41:16.532Z,7.17
2024-01-16T08:43:44.021Z,7.47
2024-01-16T08:46:12.064Z,7.30
2024-01-16T08:48:40.434Z,7.47
2024-01-16T08:51:13.542Z,7.63
2024-01-16T08:53:40.565Z,7.23
2024-01-16T08:56:10.510Z,7.87
2024-01-16T08:58:39.202Z,7.30
2024-01-16T09:01:06.424Z,7.83
2024-01-16T09:03:33.646Z,9.20
2024-01-16T09:06:00.661Z,7.87
2024-01-16T09:08:28.007Z,8.97
2024-01-16T09:10:55.148Z,9.73
2024-01-16T09:13:22.233Z,8.40
2024-01-16T09:15:51.476Z,8.27
2024-01-16T09:18:18.278Z,8.40
2024-01-16T09:20:44.964Z,5.90
2024-01-16T09:23:12.537Z,7.70
2024-01-16T09:25:39.131Z,6.90
2024-01-16T09:28:05.670Z,8.43
2024-01-16T09:30:32.107Z,8.87
2024-01-16T09:32:58.683Z,7.47
2024-01-16T09:35:26.545Z,7.70
2024-01-16T09:37:53.069Z,6.77
2024-01-16T09:40:19.673Z,7.63
2024-01-16T09:42:47.109Z,9.67
2024-01-16T09:45:22.926Z,9.20
2024-01-16T09:47:52.379Z,8.83
2024-01-16T09:50:20.747Z,7.13
2024-01-16T09:52:50.824Z,9.67
2024-01-16T09:55:17.451Z,7.87
2024-01-16T09:57:47.809Z,6.40
2024-01-16T10:00:15.100Z,8.03
2024-01-16T10:02:43.515Z,8.30
2024-01-16T10:05:12.245Z,9.13
2024-01-16T10:07:40.724Z,9.43
2024-01-16T10:10:08.269Z,9.30
2024-01-16T10:12:35.133Z,7.00
2024-01-16T10:15:01.866Z,7.97
2024-01-16T10:17:38.984Z,7.30
2024-01-16T10:20:06.715Z,8.57
2024-01-16T10:22:33.727Z,9.20
2024-01-16T10:25:13.843Z,6.63
2024-01-16T10:27:41.538Z,8.63
2024-01-16T10:30:08.774Z,8.67
2024-01-16T10:32:37.717Z,7.10
2024-01-16T10:35:14.868Z,7.50
2024-01-16T10:37:49.030Z,8.00
2024-01-16T10:40:22.634Z,8.03
2024-01-16T10:43:02.276Z,7.70
2024-01-16T10:45:29.459Z,7.30
2024-01-16T10:48:08.595Z,8.17
2024-01-16T10:50:38.705Z,8.47
2024-01-16T10:53:07.133Z,7.67
2024-01-16T10:55:44.367Z,7.87
2024-01-16T10:58:14.341Z,15.47
2024-01-16T11:00:43.805Z,7.33
2024-01-16T11:03:20.895Z,10.10
2024-01-16T11:05:49.155Z,8.17
2024-01-16T11:08:18.534Z,8.43
2024-01-16T11:10:45.882Z,6.90
2024-01-16T11:13:13.906Z,10.13
2024-01-16T11:15:46.325Z,9.13
2024-01-16T11:18:15.617Z,6.77
2024-01-16T11:21:01.795Z,7.30
2024-01-16T11:23:31.123Z,9.17
2024-01-16T11:25:57.729Z,7.57
2024-01-16T11:28:33.589Z,5.90
2024-01-16T11:31:29.706Z,6.77
2024-01-16T11:33:56.626Z,7.20
2024-01-16T11:36:47.790Z,7.77
2024-01-16T11:39:22.863Z,7.67
2024-01-16T11:41:54.056Z,10.50
2024-01-16T11:44:48.945Z,5.87
2024-01-16T11:47:20.516Z,10.20
2024-01-16T11:50:11.422Z,6.63
2024-01-16T11:52:41.750Z,11.47
2024-01-16T11:55:27.984Z,8.47
2024-01-16T11:58:08.035Z,7.00
2024-01-16T12:00:36.883Z,9.20
2024-01-16T12:03:09.192Z,8.27
2024-01-16T12:05:36.621Z,8.27
2024-01-16T12:08:04.771Z,8.77
2024-01-16T12:10:33.031Z,9.23
2024-01-16T12:13:04.068Z,5.27
2024-01-16T12:15:32.836Z,7.43
2024-01-16T12:18:02.012Z,5.53
2024-01-16T12:20:32.506Z,8.17
2024-01-16T12:23:04.650Z,7.67
2024-01-16T12:26:00.366Z,7.73
2024-01-16T12:30:52.848Z,7.90
2024-01-16T12:33:28.263Z,7.13
2024-01-16T12:36:03.907Z,7.97
2024-01-16T12:38:31.875Z,7.03
2024-01-16T12:41:02.140Z,8.50
2024-01-16T12:43:28.772Z,8.23
2024-01-16T12:45:58.523Z,9.63
2024-01-16T12:48:26.978Z,7.60
2024-01-16T12:51:03.546Z,8.57
2024-01-16T12:53:31.449Z,7.03
2024-01-16T12:56:04.464Z,6.77
2024-01-16T12:58:36.641Z,7.70
2024-01-16T13:01:38.537Z,11.27
2024-01-16T13:04:07.581Z,8.63
2024-01-16T13:06:35.832Z,9.03
2024-01-16T13:09:12.669Z,12.93
2024-01-16T13:11:59.929Z,9.57
2024-01-16T13:14:27.391Z,8.57
2024-01-16T13:17:00.160Z,8.10
2024-01-16T13:19:27.463Z,8.33
2024-01-16T13:21:55.492Z,9.57
2024-01-16T13:24:24.647Z,9.03
2024-01-16T13:26:52.029Z,7.00
2024-01-16T13:29:19.089Z,11.40
2024-01-16T13:31:46.168Z,9.63
2024-01-16T13:34:13.448Z,7.60
2024-01-16T13:36:54.308Z,11.77
2024-01-16T13:39:27.964Z,8.77
2024-01-16T13:41:55.416Z,8.83
2024-01-16T13:44:22.242Z,11.70
2024-01-16T13:46:57.485Z,9.20
2024-01-16T13:49:32.540Z,12.93
2024-01-16T13:51:59.064Z,17.00
2024-01-16T13:54:27.481Z,11.43
2024-01-16T13:57:03.302Z,9.17
2024-01-16T13:59:34.270Z,8.70
2024-01-16T14:02:01.204Z,12.37
2024-01-16T14:04:30.333Z,13.07
2024-01-16T14:07:10.453Z,10.00
2024-01-16T14:09:46.112Z,8.93
2024-01-16T14:12:14.328Z,8.67
2024-01-16T14:14:45.642Z,8.50
2024-01-16T14:17:12.411Z,11.07
2024-01-16T14:19:40.320Z,10.37
2024-01-16T14:22:08.669Z,8.67
2024-01-16T14:24:35.654Z,8.33
2024-01-16T14:27:02.413Z,11.10
2024-01-16T14:29:30.487Z,7.50
2024-01-16T14:31:58.081Z,9.23
2024-01-16T14:34:25.515Z,8.10
2024-01-16T14:36:55.070Z,8.60
2024-01-16T14:39:26.503Z,9.87
2024-01-16T14:41:54.033Z,10.07
2024-01-16T14:44:20.646Z,9.07
2024-01-16T14:46:48.912Z,9.50
2024-01-16T14:49:17.688Z,9.07
2024-01-16T14:51:44.414Z,12.20
2024-01-16T14:54:14.058Z,10.10
2024-01-16T14:56:40.898Z,7.57
2024-01-16T14:59:07.367Z,9.67
2024-01-16T15:01:33.877Z,7.87
2024-01-16T15:04:01.064Z,9.53
2024-01-16T15:06:31.144Z,8.43
2024-01-16T15:08:58.064Z,10.63
2024-01-16T15:11:28.735Z,7.33
2024-01-16T15:13:58.594Z,10.63
2024-01-16T15:16:25.454Z,11.60
2024-01-16T15:18:52.135Z,12.07
2024-01-16T15:21:20.774Z,11.90
2024-01-16T15:23:47.396Z,9.87
2024-01-16T15:26:20.588Z,10.27
2024-01-16T15:28:50.009Z,10.10
2024-01-16T15:31:17.066Z,9.47
2024-01-16T15:33:43.613Z,11.00
2024-01-16T15:36:10.181Z,13.43
2024-01-16T15:38:38.620Z,9.03
2024-01-16T15:41:05.147Z,10.30
2024-01-16T15:43:35.259Z,8.63
2024-01-16T15:46:01.760Z,12.03
2024-01-16T15:48:35.213Z,9.37
2024-01-16T15:51:02.658Z,10.27
2024-01-16T15:53:30.410Z,7.70
2024-01-16T15:55:56.951Z,11.63
2024-01-16T15:58:23.529Z,12.07
2024-01-16T16:00:50.032Z,10.13
2024-01-16T16:03:18.374Z,7.77
2024-01-16T16:05:44.943Z,8.60
2024-01-16T16:08:11.588Z,9.00
2024-01-16T16:10:38.208Z,9.27
2024-01-16T16:13:05.780Z,15.00
2024-01-16T16:15:33.110Z,9.57
2024-01-16T16:17:59.974Z,8.07
2024-01-16T16:20:27.002Z,13.30
2024-01-16T16:22:56.687Z,12.73
2024-01-16T16:25:23.473Z,9.63
2024-01-16T16:27:49.869Z,9.50
2024-01-16T16:30:16.753Z,12.53
2024-01-16T16:32:45.318Z,12.87
2024-01-16T16:35:11.959Z,13.80
2024-01-16T16:37:38.757Z,11.23
2024-01-16T16:40:11.291Z,10.87
2024-01-16T16:42:37.886Z,10.00
2024-01-16T16:45:05.232Z,9.93
2024-01-16T16:47:32.108Z,12.23
2024-01-16T16:50:00.122Z,17.93
2024-01-16T16:52:26.665Z,16.20
2024-01-16T16:54:55.036Z,69.33
2024-01-16T16:57:21.568Z,31.10
2024-01-16T16:59:48.029Z,20.10
2024-01-16T17:02:15.572Z,15.60
2024-01-16T17:04:42.559Z,18.63
2024-01-16T17:07:11.719Z,14.93
2024-01-16T17:09:41.646Z,16.77
2024-01-16T17:12:08.632Z,15.13
2024-01-16T17:14:36.767Z,15.10
2024-01-16T17:17:04.578Z,14.10
2024-01-16T17:19:31.165Z,14.07
2024-01-16T17:21:57.979Z,15.80
2024-01-16T17:24:24.480Z,15.13
2024-01-16T17:26:51.876Z,12.77
2024-01-16T17:29:19.364Z,13.87
2024-01-16T17:31:45.801Z,20.00
2024-01-16T17:34:13.593Z,17.73
2024-01-16T17:36:41.324Z,18.97
2024-01-16T17:39:10.888Z,18.30
2024-01-16T17:41:38.215Z,20.37
2024-01-16T17:44:05.499Z,20.33
2024-01-16T17:46:31.952Z,17.47
2024-01-16T17:48:59.672Z,17.27
2024-01-16T17:51:26.583Z,18.43
2024-01-16T17:53:55.750Z,20.17
2024-01-16T17:56:25.794Z,14.17
2024-01-16T17:58:52.935Z,16.67
2024-01-16T18:01:21.856Z,14.80
2024-01-16T18:03:49.377Z,17.73
2024-01-16T18:06:18.333Z,16.60
2024-01-16T18:08:45.511Z,17.10
2024-01-16T18:11:15.545Z,22.47
2024-01-16T18:13:44.859Z,19.33
2024-01-16T18:16:12.895Z,20.67
2024-01-16T18:18:41.329Z,20.90
2024-01-16T18:21:08.206Z,18.17
2024-01-16T18:23:36.308Z,18.03
2024-01-16T18:26:05.585Z,16.10
2024-01-16T18:28:33.400Z,15.50
2024-01-16T18:31:00.906Z,16.80
2024-01-16T18:33:27.782Z,15.57
2024-01-16T18:36:00.932Z,14.73
2024-01-16T18:38:28.827Z,17.73
2024-01-16T18:40:57.637Z,15.63
2024-01-16T18:43:24.416Z,16.93
2024-01-16T18:45:52.592Z,14.43
2024-01-16T18:48:19.425Z,17.33
2024-01-16T18:50:46.520Z,15.90
2024-01-16T18:53:14.184Z,18.00
2024-01-16T18:55:40.903Z,17.00
2024-01-16T18:58:09.562Z,14.93
2024-01-16T19:00:38.401Z,16.80
2024-01-16T19:03:06.335Z,17.93
2024-01-16T19:05:36.047Z,16.97
2024-01-16T19:08:02.689Z,18.60
2024-01-16T19:10:30.452Z,18.20
2024-01-16T19:12:56.910Z,18.23
2024-01-16T19:15:23.309Z,18.83
2024-01-16T19:17:52.126Z,15.50
2024-01-16T19:20:23.016Z,16.40
2024-01-16T19:22:56.733Z,14.17
2024-01-16T19:25:26.966Z,17.67
2024-01-16T19:27:56.504Z,19.97
2024-01-16T19:30:24.288Z,18.63
2024-01-16T19:32:51.540Z,17.67
2024-01-16T19:35:19.108Z,17.20
2024-01-16T19:37:47.408Z,18.83
2024-01-16T19:40:17.302Z,17.03
2024-01-16T19:42:44.928Z,15.63
2024-01-16T19:45:12.891Z,17.60
2024-01-16T19:47:44.116Z,19.47
2024-01-16T19:50:22.189Z,17.67
2024-01-16T19:52:51.986Z,19.13
2024-01-16T19:55:28.559Z,20.90
2024-01-16T19:57:55.618Z,19.93
2024-01-16T20:00:22.634Z,15.13
2024-01-16T20:02:50.236Z,17.33
2024-01-16T20:05:19.105Z,14.87
2024-01-16T20:07:47.323Z,19.33
2024-01-16T20:10:15.288Z,20.17
2024-01-16T20:12:42.957Z,18.13
2024-01-16T20:15:17.340Z,17.20
2024-01-16T20:17:45.576Z,16.17
2024-01-16T20:20:15.108Z,16.23
2024-01-16T20:22:43.178Z,15.87
2024-01-16T20:25:14.141Z,18.97
2024-01-16T20:27:41.794Z,17.17
2024-01-16T20:30:10.094Z,16.93
2024-01-16T20:32:40.260Z,18.37
2024-01-16T20:35:08.370Z,21.63
2024-01-16T20:37:36.869Z,20.43
2024-01-16T20:40:05.905Z,19.43
2024-01-16T20:42:33.059Z,24.57
2024-01-16T20:44:59.601Z,20.80
2024-01-16T20:47:26.576Z,27.73
2024-01-16T20:49:53.586Z,29.37
2024-01-16T20:52:20.973Z,18.83
2024-01-16T20:54:47.472Z,18.77
2024-01-16T20:57:14.738Z,18.40
2024-01-16T20:59:41.341Z,21.93
2024-01-16T21:02:08.409Z,20.77
2024-01-16T21:04:38.083Z,17.80
2024-01-16T21:07:05.725Z,20.73
2024-01-16T21:09:33.267Z,22.07
2024-01-16T21:12:01.911Z,23.13
2024-01-16T21:14:30.228Z,22.33
2024-01-16T21:16:56.731Z,24.93
2024-01-16T21:19:23.268Z,23.47
2024-01-16T21:21:55.564Z,28.90
2024-01-16T21:24:22.205Z,34.00
2024-01-16T21:26:49.302Z,35.90
2024-01-16T21:29:16.280Z,32.73
2024-01-16T21:31:47.712Z,42.50
2024-01-16T21:34:16.199Z,47.67
2024-01-16T21:36:42.717Z,36.63
2024-01-16T21:39:10.256Z,27.73
2024-01-16T21:41:36.844Z,25.30
2024-01-16T21:44:03.379Z,24.30
2024-01-16T21:46:29.865Z,28.00
2024-01-16T21:48:56.534Z,23.73
2024-01-16T21:51:24.372Z,22.97
2024-01-16T21:53:50.924Z,23.40
2024-01-16T21:56:17.405Z,21.10
2024-01-16T21:58:43.892Z,24.80
2024-01-16T22:01:11.638Z,20.60
2024-01-16T22:03:40.756Z,20.50
2024-01-16T22:06:07.463Z,22.40
2024-01-16T22:08:34.082Z,22.00
2024-01-16T22:11:00.877Z,20.60
2024-01-16T22:13:27.725Z,21.30
2024-01-16T22:15:54.951Z,17.53
2024-01-16T22:18:23.249Z,24.00
2024-01-16T22:20:49.918Z,21.70
2024-01-16T22:23:16.643Z,24.50
2024-01-16T22:25:43.435Z,25.10
2024-01-16T22:28:10.285Z,21.70
2024-01-16T22:30:40.732Z,27.50
2024-01-16T22:33:07.522Z,22.87
2024-01-16T22:35:34.151Z,20.73
2024-01-16T22:38:00.879Z,23.97
2024-01-16T22:40:27.615Z,21.57
2024-01-16T22:42:54.200Z,18.93
2024-01-16T22:45:23.584Z,22.27
2024-01-16T22:47:52.330Z,21.97
2024-01-16T22:50:21.282Z,23.30
2024-01-16T22:52:48.645Z,23.53
2024-01-16T22:55:16.900Z,21.33
2024-01-16T22:57:44.752Z,22.20
2024-01-16T23:00:18.826Z,23.00
2024-01-16T23:02:46.053Z,25.83
2024-01-16T23:05:18.654Z,25.20
2024-01-16T23:07:46.125Z,24.30
2024-01-16T23:10:17.110Z,22.33
2024-01-16T23:12:46.577Z,23.00
2024-01-16T23:15:13.523Z,21.43
2024-01-16T23:17:40.081Z,22.43
2024-01-16T23:20:09.647Z,21.47
2024-01-16T23:22:36.363Z,25.13
2024-01-16T23:25:05.430Z,23.13
2024-01-16T23:27:32.399Z,24.17
2024-01-16T23:29:59.600Z,23.80
2024-01-16T23:32:26.334Z,20.33
2024-01-16T23:34:52.938Z,21.03
2024-01-16T23:37:25.043Z,24.00
2024-01-16T23:39:55.866Z,22.60
2024-01-16T23:42:24.169Z,22.17
2024-01-16T23:44:51.723Z,23.63
2024-01-16T23:47:19.020Z,25.23
2024-01-16T23:49:48.792Z,23.00
2024-01-16T23:52:15.282Z,22.40
2024-01-16T23:54:42.042Z,24.07
2024-01-16T23:57:08.894Z,25.80
2024-01-16T23:59:39.363Z,21.50
